createdAt,value
2022-09-29T00:01:04.675Z,12.10
2022-09-29T00:03:31.718Z,12.10
2022-09-29T00:05:58.964Z,12.10
2022-09-29T00:08:30.026Z,12.10
2022-09-29T00:10:57.319Z,12.10
2022-09-29T00:13:24.276Z,12.10
2022-09-29T00:16:09.828Z,12.10
2022-09-29T00:18:36.829Z,12.10
2022-09-29T00:21:21.563Z,12.10
2022-09-29T00:23:50.005Z,12.10
2022-09-29T00:26:23.094Z,12.10
2022-09-29T00:28:55.495Z,12.10
2022-09-29T00:31:24.917Z,12.10
2022-09-29T00:33:52.498Z,12.10
2022-09-29T00:36:21.954Z,12.10
2022-09-29T00:38:52.669Z,12.10
2022-09-29T00:41:29.494Z,12.10
2022-09-29T00:44:03.519Z,12.10
2022-09-29T00:46:58.448Z,12.10
2022-09-29T00:49:36.307Z,12.10
2022-09-29T00:52:14.410Z,12.10
2022-09-29T00:54:50.556Z,12.10
2022-09-29T00:57:22.060Z,12.10
2022-09-29T01:00:02.910Z,12.10
2022-09-29T01:02:32.605Z,12.10
2022-09-29T01:05:00.851Z,12.10
2022-09-29T01:07:28.380Z,12.10
2022-09-29T01:09:57.203Z,12.00
2022-09-29T01:12:24.326Z,12.00
2022-09-29T01:14:53.827Z,12.00
2022-09-29T01:17:22.004Z,12.00
2022-09-29T01:20:04.583Z,12.00
2022-09-29T01:22:58.615Z,12.00
2022-09-29T01:26:14.045Z,12.00
2022-09-29T01:29:33.130Z,12.00
2022-09-29T01:32:42.944Z,12.00
2022-09-29T01:35:24.512Z,12.00
2022-09-29T01:38:27.936Z,11.90
2022-09-29T01:41:17.175Z,11.90
2022-09-29T01:43:57.263Z,11.90
2022-09-29T01:46:30.362Z,11.90
2022-09-29T01:48:58.803Z,11.90
2022-09-29T01:51:32.502Z,11.90
2022-09-29T01:54:04.885Z,11.90
2022-09-29T01:56:39.020Z,11.90
2022-09-29T01:59:26.254Z,11.90
2022-09-29T02:02:00.912Z,11.90
2022-09-29T02:04:35.784Z,11.90
2022-09-29T02:07:12.066Z,11.90
2022-09-29T02:09:42.979Z,11.90
2022-09-29T02:12:14.191Z,11.80
2022-09-29T02:14:46.434Z,11.90
2022-09-29T02:17:20.088Z,11.80
2022-09-29T02:19:51.609Z,11.80
2022-09-29T02:22:18.868Z,11.80
2022-09-29T02:24:46.128Z,11.80
2022-09-29T02:27:41.057Z,11.80
2022-09-29T02:30:09.095Z,11.80
2022-09-29T02:32:36.525Z,11.80
2022-09-29T02:35:07.872Z,11.70
2022-09-29T02:38:01.276Z,11.80
2022-09-29T02:41:07.238Z,11.80
2022-09-29T02:43:58.643Z,11.80
2022-09-29T02:47:04.168Z,11.70
2022-09-29T02:50:11.157Z,11.70
2022-09-29T02:52:55.099Z,11.70
2022-09-29T02:55:41.844Z,11.70
2022-09-29T02:58:21.342Z,11.70
2022-09-29T03:00:48.337Z,11.70
2022-09-29T03:03:15.317Z,11.70
2022-09-29T03:05:42.234Z,11.70
2022-09-29T03:08:09.086Z,11.70
2022-09-29T03:10:35.908Z,11.70
2022-09-29T03:13:02.783Z,11.60
2022-09-29T03:15:29.790Z,11.70
2022-09-29T03:17:57.308Z,11.70
2022-09-29T03:20:24.652Z,11.70
2022-09-29T03:22:52.075Z,11.60
2022-09-29T03:25:18.988Z,11.60
2022-09-29T03:27:46.348Z,11.60
2022-09-29T03:30:13.556Z,11.60
2022-09-29T03:32:40.399Z,11.60
2022-09-29T03:35:08.024Z,11.60
2022-09-29T03:37:34.860Z,11.60
2022-09-29T03:40:02.634Z,11.60
2022-09-29T03:42:29.473Z,11.60
2022-09-29T03:44:56.317Z,11.60
2022-09-29T03:47:23.273Z,11.50
2022-09-29T03:49:50.224Z,11.60
2022-09-29T03:52:17.532Z,11.50
2022-09-29T03:54:44.402Z,11.50
2022-09-29T03:57:11.285Z,11.50
2022-09-29T03:59:42.047Z,11.50
2022-09-29T04:02:11.683Z,11.50
2022-09-29T04:04:38.602Z,11.50
2022-09-29T04:07:05.483Z,11.50
2022-09-29T04:09:32.351Z,11.50
2022-09-29T04:11:59.220Z,11.50
2022-09-29T04:14:26.084Z,11.50
2022-09-29T04:16:52.960Z,11.40
2022-09-29T04:19:19.958Z,11.40
2022-09-29T04:21:47.008Z,11.40
2022-09-29T04:24:13.879Z,11.40
2022-09-29T04:26:40.803Z,11.40
2022-09-29T04:29:07.849Z,11.40
2022-09-29T04:31:34.829Z,11.30
2022-09-29T04:34:01.750Z,11.40
2022-09-29T04:36:28.707Z,11.30
2022-09-29T04:38:55.595Z,11.30
2022-09-29T04:41:22.502Z,11.30
2022-09-29T04:43:49.378Z,11.30
2022-09-29T04:46:16.347Z,11.30
2022-09-29T04:48:43.290Z,11.30
2022-09-29T04:51:10.649Z,11.30
2022-09-29T04:53:37.700Z,11.30
2022-09-29T04:56:09.067Z,11.20
2022-09-29T04:58:36.500Z,11.20
2022-09-29T05:01:13.736Z,11.20
2022-09-29T05:03:41.174Z,11.20
2022-09-29T05:06:09.878Z,11.20
2022-09-29T05:08:36.843Z,11.20
2022-09-29T05:11:09.243Z,11.20
2022-09-29T05:13:36.976Z,11.20
2022-09-29T05:16:05.131Z,11.20
2022-09-29T05:18:32.276Z,11.20
2022-09-29T05:23:54.403Z,11.30
2022-09-29T05:26:21.279Z,11.20
2022-09-29T05:28:48.267Z,11.20
2022-09-29T05:31:15.944Z,11.30
2022-09-29T05:33:42.951Z,11.20
2022-09-29T05:36:12.173Z,11.20
2022-09-29T05:38:39.691Z,11.30
2022-09-29T05:41:11.020Z,11.30
2022-09-29T05:43:39.328Z,11.30
2022-09-29T05:46:09.017Z,11.30
2022-09-29T05:48:36.121Z,11.40
2022-09-29T05:51:19.450Z,11.40
2022-09-29T05:53:49.564Z,11.40
2022-09-29T05:56:23.384Z,11.40
2022-09-29T05:58:50.957Z,11.50
2022-09-29T06:01:21.716Z,11.50
2022-09-29T06:03:48.959Z,11.50
2022-09-29T06:06:20.143Z,11.60
2022-09-29T06:08:47.854Z,11.60
2022-09-29T06:11:18.971Z,11.60
2022-09-29T06:13:49.906Z,11.60
2022-09-29T06:16:20.038Z,11.60
2022-09-29T06:18:48.080Z,11.60
2022-09-29T06:21:24.636Z,11.70
2022-09-29T06:23:54.432Z,11.70
2022-09-29T06:26:24.117Z,11.70
2022-09-29T06:28:56.192Z,11.70
2022-09-29T06:31:26.951Z,11.70
2022-09-29T06:34:00.352Z,11.80
2022-09-29T06:37:00.088Z,11.80
2022-09-29T06:39:27.762Z,11.80
2022-09-29T06:41:56.463Z,11.80
2022-09-29T06:44:26.689Z,11.80
2022-09-29T06:46:54.896Z,11.80
2022-09-29T06:49:22.360Z,11.80
2022-09-29T06:51:49.297Z,11.90
2022-09-29T06:54:20.647Z,11.90
2022-09-29T06:56:49.461Z,11.90
2022-09-29T06:59:17.310Z,12.00
2022-09-29T07:01:44.289Z,12.10
2022-09-29T07:04:11.215Z,12.10
2022-09-29T07:06:38.097Z,12.20
2022-09-29T07:09:04.973Z,12.20
2022-09-29T07:11:31.851Z,12.30
2022-09-29T07:13:58.726Z,12.30
2022-09-29T07:16:25.717Z,12.40
2022-09-29T07:18:53.037Z,12.40
2022-09-29T07:21:21.452Z,12.50
2022-09-29T07:23:48.574Z,12.50
2022-09-29T07:26:16.997Z,12.60
2022-09-29T07:28:45.338Z,12.60
2022-09-29T07:31:19.195Z,12.60
2022-09-29T07:33:48.620Z,12.60
2022-09-29T07:36:18.740Z,12.70
2022-09-29T07:38:50.964Z,12.70
2022-09-29T07:41:21.784Z,12.70
2022-09-29T07:43:48.989Z,12.80
2022-09-29T07:46:16.701Z,12.80
2022-09-29T07:48:43.712Z,12.80
2022-09-29T07:51:18.951Z,12.80
2022-09-29T07:53:46.643Z,12.90
2022-09-29T07:56:20.228Z,12.90
2022-09-29T07:58:49.844Z,13.00
2022-09-29T08:01:18.681Z,13.00
2022-09-29T08:03:54.453Z,13.10
2022-09-29T08:06:25.544Z,13.10
2022-09-29T08:09:04.793Z,13.20
2022-09-29T08:11:37.132Z,13.30
2022-09-29T08:14:04.839Z,13.30
2022-09-29T08:16:32.490Z,13.30
2022-09-29T08:19:00.779Z,13.40
2022-09-29T08:21:29.688Z,13.50
2022-09-29T08:23:56.538Z,13.50
2022-09-29T08:26:35.935Z,13.50
2022-09-29T08:29:09.054Z,13.60
2022-09-29T08:31:38.103Z,13.60
2022-09-29T08:34:05.685Z,13.70
2022-09-29T08:36:32.705Z,13.70
2022-09-29T08:39:00.142Z,13.70
2022-09-29T08:41:52.195Z,13.80
2022-09-29T08:44:41.740Z,13.90
2022-09-29T08:47:43.076Z,13.90
2022-09-29T08:50:31.242Z,13.90
2022-09-29T08:53:23.179Z,13.90
2022-09-29T08:56:13.849Z,14.00
2022-09-29T08:58:40.715Z,14.00
2022-09-29T09:01:21.983Z,14.10
2022-09-29T09:04:21.097Z,14.20
2022-09-29T09:07:21.829Z,14.30
2022-09-29T09:09:55.979Z,14.40
2022-09-29T09:13:07.628Z,14.50
2022-09-29T09:15:47.028Z,14.60
2022-09-29T09:18:36.679Z,14.70
2022-09-29T09:21:08.710Z,14.80
2022-09-29T09:23:44.132Z,14.90
2022-09-29T09:26:12.185Z,14.90
2022-09-29T09:29:00.001Z,15.00
2022-09-29T09:31:42.288Z,15.00
2022-09-29T09:34:45.436Z,15.00
2022-09-29T09:37:20.782Z,15.10
2022-09-29T09:40:05.574Z,15.10
2022-09-29T09:42:37.557Z,15.20
2022-09-29T09:45:23.741Z,15.20
2022-09-29T09:47:57.476Z,15.30
2022-09-29T09:50:25.590Z,15.30
2022-09-29T09:52:56.502Z,15.40
2022-09-29T09:55:26.261Z,15.40
2022-09-29T09:58:18.533Z,15.50
2022-09-29T10:01:02.704Z,15.60
2022-09-29T10:03:30.689Z,15.70
2022-09-29T10:05:58.036Z,15.80
2022-09-29T10:08:31.444Z,15.80
2022-09-29T10:10:59.921Z,15.90
2022-09-29T10:13:31.559Z,16.00
2022-09-29T10:16:01.920Z,16.10
2022-09-29T10:18:46.348Z,16.20
2022-09-29T10:21:43.948Z,16.30
2022-09-29T10:24:32.101Z,16.40
2022-09-29T10:27:01.150Z,16.50
2022-09-29T10:29:40.260Z,16.60
2022-09-29T10:32:17.324Z,16.70
2022-09-29T10:34:54.881Z,16.80
2022-09-29T10:37:29.423Z,16.80
2022-09-29T10:40:12.664Z,16.80
2022-09-29T10:42:43.159Z,16.90
2022-09-29T10:45:13.966Z,17.00
2022-09-29T10:47:45.325Z,17.00
2022-09-29T10:50:22.529Z,17.10
2022-09-29T10:53:32.056Z,17.10
2022-09-29T10:56:01.790Z,17.10
2022-09-29T10:58:44.621Z,17.10
2022-09-29T11:01:17.793Z,17.10
2022-09-29T11:04:01.468Z,17.10
2022-09-29T11:06:43.873Z,17.00
2022-09-29T11:09:15.549Z,17.00
2022-09-29T11:11:48.167Z,16.90
2022-09-29T11:14:29.844Z,16.90
2022-09-29T11:17:00.329Z,16.90
2022-09-29T11:19:30.001Z,16.90
2022-09-29T11:22:49.224Z,16.90
2022-09-29T11:25:26.312Z,17.00
2022-09-29T11:28:19.677Z,17.10
2022-09-29T11:31:17.924Z,17.20
2022-09-29T11:34:29.653Z,17.30
2022-09-29T11:37:27.456Z,17.50
2022-09-29T11:40:22.426Z,17.60
2022-09-29T11:43:05.560Z,17.80
2022-09-29T11:45:56.753Z,17.80
2022-09-29T11:48:38.559Z,17.90
2022-09-29T11:51:30.515Z,17.90
2022-09-29T11:54:31.135Z,17.90
2022-09-29T11:57:10.537Z,17.90
2022-09-29T12:00:01.958Z,17.80
2022-09-29T12:03:05.571Z,17.80
2022-09-29T12:06:05.645Z,17.80
2022-09-29T12:09:27.733Z,17.80
2022-09-29T12:12:31.359Z,17.80
2022-09-29T12:18:03.931Z,18.00
2022-09-29T12:20:44.168Z,18.10
2022-09-29T12:23:14.891Z,18.20
2022-09-29T12:26:19.876Z,18.20
2022-09-29T12:29:39.161Z,18.40
2022-09-29T12:32:19.526Z,18.40
2022-09-29T12:35:13.065Z,18.50
2022-09-29T12:37:46.752Z,18.50
2022-09-29T12:40:33.356Z,18.50
2022-09-29T12:43:17.028Z,18.50
2022-09-29T12:46:27.056Z,18.50
2022-09-29T12:49:11.597Z,18.50
2022-09-29T12:51:47.851Z,18.40
2022-09-29T12:54:37.200Z,18.40
2022-09-29T12:57:19.406Z,18.40
2022-09-29T12:59:58.546Z,18.40
2022-09-29T13:02:44.115Z,18.40
2022-09-29T13:06:20.959Z,18.40
2022-09-29T13:09:36.392Z,18.40
2022-09-29T13:12:30.251Z,18.50
2022-09-29T13:15:45.344Z,18.50
2022-09-29T13:18:49.044Z,18.50
2022-09-29T13:22:16.003Z,18.40
2022-09-29T13:25:48.380Z,18.40
2022-09-29T13:28:31.906Z,18.30
2022-09-29T13:31:14.294Z,18.30
2022-09-29T13:33:47.798Z,18.30
2022-09-29T13:36:35.736Z,18.20
2022-09-29T13:39:17.199Z,18.20
2022-09-29T13:41:44.075Z,18.10
2022-09-29T13:44:17.065Z,18.10
2022-09-29T13:46:44.070Z,18.10
2022-09-29T13:49:13.484Z,18.10
2022-09-29T13:51:52.670Z,18.10
2022-09-29T13:54:43.515Z,18.20
2022-09-29T13:57:13.397Z,18.20
2022-09-29T13:59:54.357Z,18.20
2022-09-29T14:02:39.419Z,18.20
2022-09-29T14:05:26.544Z,18.20
2022-09-29T14:07:57.316Z,18.30
2022-09-29T14:10:35.263Z,18.40
2022-09-29T14:13:10.925Z,18.40
2022-09-29T14:16:03.288Z,18.50
2022-09-29T14:18:43.445Z,18.60
2022-09-29T14:21:46.473Z,18.70
2022-09-29T14:24:39.872Z,18.80
2022-09-29T14:27:33.980Z,19.00
2022-09-29T14:30:09.705Z,19.10
2022-09-29T14:32:47.909Z,19.20
2022-09-29T14:35:34.183Z,19.30
2022-09-29T14:38:44.274Z,19.30
2022-09-29T14:41:11.033Z,19.40
2022-09-29T14:44:07.719Z,19.40
2022-09-29T14:47:21.029Z,19.50
2022-09-29T14:50:42.684Z,19.50
2022-09-29T14:53:41.922Z,19.50
2022-09-29T14:56:51.881Z,19.40
2022-09-29T14:59:41.208Z,19.40
2022-09-29T15:02:22.009Z,19.40
2022-09-29T15:04:49.614Z,19.30
2022-09-29T15:07:24.086Z,19.30
2022-09-29T15:09:54.998Z,19.20
2022-09-29T15:12:30.425Z,19.10
2022-09-29T15:14:58.494Z,19.00
2022-09-29T15:17:49.262Z,18.90
2022-09-29T15:20:52.515Z,18.80
2022-09-29T15:23:44.384Z,18.80
2022-09-29T15:26:15.637Z,18.70
2022-09-29T15:28:43.357Z,18.70
2022-09-29T15:31:17.069Z,18.60
2022-09-29T15:33:45.476Z,18.50
2022-09-29T15:36:23.547Z,18.50
2022-09-29T15:39:31.954Z,18.50
2022-09-29T15:42:13.897Z,18.50
2022-09-29T15:44:47.301Z,18.40
2022-09-29T15:47:38.840Z,18.40
2022-09-29T15:50:19.831Z,18.30
2022-09-29T15:52:47.137Z,18.30
2022-09-29T15:55:17.526Z,18.20
2022-09-29T15:57:58.379Z,18.10
2022-09-29T16:00:26.841Z,18.10
2022-09-29T16:03:05.332Z,18.00
2022-09-29T16:05:40.010Z,18.00
2022-09-29T16:08:16.623Z,17.90
2022-09-29T16:11:16.529Z,17.90
2022-09-29T16:13:50.846Z,17.80
2022-09-29T16:16:26.521Z,17.80
2022-09-29T16:18:59.533Z,17.70
2022-09-29T16:21:35.265Z,17.70
2022-09-29T16:24:15.365Z,17.60
2022-09-29T16:26:54.976Z,17.50
2022-09-29T16:29:35.731Z,17.50
2022-09-29T16:32:38.397Z,17.40
2022-09-29T16:35:48.863Z,17.30
2022-09-29T16:38:35.879Z,17.30
2022-09-29T16:41:36.614Z,17.20
2022-09-29T16:44:27.158Z,17.10
2022-09-29T16:47:14.970Z,17.00
2022-09-29T16:49:49.342Z,17.00
2022-09-29T16:52:27.061Z,16.90
2022-09-29T16:55:07.935Z,16.80
2022-09-29T16:57:34.942Z,16.70
2022-09-29T17:00:11.222Z,16.70
2022-09-29T17:02:38.155Z,16.60
2022-09-29T17:05:05.337Z,16.50
2022-09-29T17:07:32.768Z,16.50
2022-09-29T17:10:01.031Z,16.40
2022-09-29T17:12:29.970Z,16.40
2022-09-29T17:14:57.812Z,16.30
2022-09-29T17:17:28.131Z,16.30
2022-09-29T17:19:56.531Z,16.20
2022-09-29T17:22:31.884Z,16.10
2022-09-29T17:24:59.143Z,16.10
2022-09-29T17:27:45.862Z,16.00
2022-09-29T17:30:21.100Z,15.90
2022-09-29T17:32:49.041Z,15.90
2022-09-29T17:35:18.182Z,15.80
2022-09-29T17:37:48.433Z,15.70
2022-09-29T17:40:49.453Z,15.70
2022-09-29T17:43:18.328Z,15.60
2022-09-29T17:45:46.165Z,15.50
2022-09-29T17:48:13.615Z,15.50
2022-09-29T17:50:56.244Z,15.40
2022-09-29T17:53:25.377Z,15.40
2022-09-29T17:55:56.636Z,15.30
2022-09-29T17:58:23.840Z,15.30
2022-09-29T18:00:54.764Z,15.30
2022-09-29T18:03:22.434Z,15.20
2022-09-29T18:05:59.745Z,15.20
2022-09-29T18:08:29.532Z,15.10
2022-09-29T18:10:58.913Z,15.10
2022-09-29T18:13:27.694Z,15.10
2022-09-29T18:15:59.996Z,15.10
2022-09-29T18:18:27.168Z,15.00
2022-09-29T18:20:54.133Z,15.00
2022-09-29T18:23:23.138Z,15.00
2022-09-29T18:25:52.129Z,15.00
2022-09-29T18:28:19.805Z,14.90
2022-09-29T18:30:55.381Z,14.90
2022-09-29T18:33:22.274Z,14.90
2022-09-29T18:35:54.546Z,14.80
2022-09-29T18:38:21.967Z,14.80
2022-09-29T18:40:51.629Z,14.80
2022-09-29T18:43:18.497Z,14.70
2022-09-29T18:45:45.416Z,14.70
2022-09-29T18:48:14.449Z,14.70
2022-09-29T18:50:47.303Z,14.60
2022-09-29T18:53:17.523Z,14.60
2022-09-29T18:55:44.547Z,14.60
2022-09-29T18:58:18.407Z,14.60
2022-09-29T19:00:50.216Z,14.50
2022-09-29T19:03:20.741Z,14.50
2022-09-29T19:05:48.183Z,14.40
2022-09-29T19:08:16.916Z,14.40
2022-09-29T19:10:54.088Z,14.40
2022-09-29T19:13:21.466Z,14.40
2022-09-29T19:15:48.979Z,14.30
2022-09-29T19:18:22.527Z,14.30
2022-09-29T19:20:55.812Z,14.30
2022-09-29T19:23:24.406Z,14.20
2022-09-29T19:25:53.141Z,14.10
2022-09-29T19:28:22.277Z,14.10
2022-09-29T19:30:50.260Z,14.00
2022-09-29T19:33:21.183Z,14.00
2022-09-29T19:35:52.371Z,13.90
2022-09-29T19:38:19.846Z,13.90
2022-09-29T19:40:48.077Z,13.90
2022-09-29T19:43:15.477Z,13.80
2022-09-29T19:45:43.649Z,13.80
2022-09-29T19:48:19.243Z,13.80
2022-09-29T19:51:06.268Z,13.70
2022-09-29T19:53:35.439Z,13.70
2022-09-29T19:56:08.161Z,13.70
2022-09-29T19:58:38.514Z,13.70
2022-09-29T20:01:08.195Z,13.60
2022-09-29T20:03:35.091Z,13.60
2022-09-29T20:06:06.432Z,13.60
2022-09-29T20:08:34.757Z,13.60
2022-09-29T20:11:09.945Z,13.60
2022-09-29T20:13:37.536Z,13.60
2022-09-29T20:16:05.882Z,13.60
2022-09-29T20:18:36.948Z,13.60
2022-09-29T20:21:12.686Z,13.60
2022-09-29T20:23:39.833Z,13.60
2022-09-29T20:26:08.963Z,13.60
2022-09-29T20:28:37.747Z,13.60
2022-09-29T20:31:07.417Z,13.60
2022-09-29T20:33:36.290Z,13.60
2022-09-29T20:36:05.329Z,13.60
2022-09-29T20:38:35.825Z,13.60
2022-09-29T20:41:03.426Z,13.60
2022-09-29T20:43:30.656Z,13.60
2022-09-29T20:46:02.985Z,13.60
2022-09-29T20:48:35.739Z,13.60
2022-09-29T20:51:06.513Z,13.60
2022-09-29T20:53:36.721Z,13.60
2022-09-29T20:56:07.391Z,13.60
2022-09-29T20:58:34.884Z,13.50
2022-09-29T21:01:27.417Z,13.50
2022-09-29T21:03:58.198Z,13.50
2022-09-29T21:06:28.851Z,13.40
2022-09-29T21:08:57.484Z,13.30
2022-09-29T21:11:24.564Z,13.30
2022-09-29T21:13:57.803Z,13.20
2022-09-29T21:16:25.677Z,13.20
2022-09-29T21:18:55.824Z,13.10
2022-09-29T21:21:22.767Z,13.10
2022-09-29T21:23:50.625Z,13.00
2022-09-29T21:26:20.136Z,13.00
2022-09-29T21:28:59.851Z,12.90
2022-09-29T21:31:30.305Z,12.90
2022-09-29T21:34:01.316Z,12.80
2022-09-29T21:36:30.962Z,12.70
2022-09-29T21:38:57.819Z,12.70
2022-09-29T21:41:28.378Z,12.60
2022-09-29T21:43:58.347Z,12.50
2022-09-29T21:46:28.229Z,12.50
2022-09-29T21:48:58.310Z,12.50
2022-09-29T21:51:34.871Z,12.40
2022-09-29T21:54:02.876Z,12.30
2022-09-29T21:56:35.214Z,12.30
2022-09-29T21:59:02.227Z,12.20
2022-09-29T22:01:29.166Z,12.20
2022-09-29T22:03:56.920Z,12.10
2022-09-29T22:06:27.202Z,12.10
2022-09-29T22:08:55.978Z,12.00
2022-09-29T22:11:29.697Z,12.00
2022-09-29T22:13:59.643Z,11.90
2022-09-29T22:16:30.413Z,11.90
2022-09-29T22:19:21.904Z,11.80
2022-09-29T22:21:46.730Z,11.80
2022-09-29T22:24:13.823Z,11.80
2022-09-29T22:26:41.360Z,11.70
2022-09-29T22:29:08.674Z,11.60
2022-09-29T22:31:35.921Z,11.60
2022-09-29T22:34:05.116Z,11.60
2022-09-29T22:36:34.862Z,11.50
2022-09-29T22:39:04.260Z,11.50
2022-09-29T22:41:31.363Z,11.40
2022-09-29T22:43:59.886Z,11.50
2022-09-29T22:46:29.386Z,11.40
2022-09-29T22:48:57.423Z,11.50
2022-09-29T22:51:24.667Z,11.50
2022-09-29T22:53:51.961Z,11.50
2022-09-29T22:56:29.985Z,11.50
2022-09-29T22:59:02.734Z,11.50
2022-09-29T23:01:29.724Z,11.60
2022-09-29T23:03:56.773Z,11.50
2022-09-29T23:06:23.722Z,11.60
2022-09-29T23:08:50.671Z,11.60
2022-09-29T23:11:20.022Z,11.60
2022-09-29T23:13:47.650Z,11.60
2022-09-29T23:16:16.635Z,11.60
2022-09-29T23:18:45.455Z,11.60
2022-09-29T23:21:19.254Z,11.60
2022-09-29T23:23:47.761Z,11.60
2022-09-29T23:26:15.536Z,11.60
2022-09-29T23:28:42.413Z,11.60
2022-09-29T23:31:11.563Z,11.60
2022-09-29T23:33:38.561Z,11.60
2022-09-29T23:36:12.733Z,11.50
2022-09-29T23:39:01.236Z,11.40
2022-09-29T23:41:30.131Z,11.40
2022-09-29T23:44:01.759Z,11.40
2022-09-29T23:46:32.222Z,11.30
2022-09-29T23:49:08.964Z,11.30
2022-09-29T23:51:39.044Z,11.30
2022-09-29T23:54:07.728Z,11.20
2022-09-29T23:56:35.040Z,11.20
2022-09-29T23:59:02.275Z,11.20
